Ostaskov, Russia
Current Conditions -  °F | °C
As of 3:30 AM on Tuesday 25 Nov 2014 (Local Time) from UUBW Reporting Station
Haze Haze  
Wind Chill: 19°   Ceiling: 600
Heat Index: 25°   Visibility: 1.8mi
Dew Point: 23°   Wind: 4mph
Humidity: 93%   Direction: NA
Pressure: 30.65"   Gusts: NA
Location:  57.16°N, 33.11°E
Report Text: UUBW 250030Z VRB02MPS 3000 BR OVC006 M04/M05 Q1038 NOSIG RMKQBB200
Loading
Personal Weather Stations






























Interactive Weather Map New forecast layout! Learn more

10-Day Weather Forecast

Advertisements
Track Severe Weather on mobile